createdAt,value
2023-01-13T00:00:05.576Z,29.42
2023-01-13T00:00:38.210Z,23.33
2023-01-13T00:01:12.095Z,28.83
2023-01-13T00:01:43.460Z,25.42
2023-01-13T00:02:14.813Z,23.73
2023-01-13T00:02:46.320Z,22.80
2023-01-13T00:03:17.850Z,21.83
2023-01-13T00:03:49.576Z,28.50
2023-01-13T00:04:20.965Z,34.67
2023-01-13T00:04:52.361Z,30.10
2023-01-13T00:05:25.597Z,25.90
2023-01-13T00:05:59.379Z,27.75
2023-01-13T00:06:30.769Z,22.37
2023-01-13T00:07:02.889Z,28.85
2023-01-13T00:07:34.230Z,29.23
2023-01-13T00:08:06.438Z,31.77
2023-01-13T00:08:37.740Z,32.38
2023-01-13T00:09:09.067Z,27.83
2023-01-13T00:09:40.435Z,21.75
2023-01-13T00:10:11.896Z,21.88
2023-01-13T00:10:48.084Z,24.90
2023-01-13T00:11:20.925Z,25.23
2023-01-13T00:11:52.456Z,22.03
2023-01-13T00:12:23.796Z,26.85
2023-01-13T00:12:55.200Z,27.63
2023-01-13T00:13:26.693Z,28.35
2023-01-13T00:13:58.082Z,36.05
2023-01-13T00:14:30.303Z,25.50
2023-01-13T00:15:01.621Z,29.88
2023-01-13T00:15:33.763Z,29.23
2023-01-13T00:16:08.291Z,20.90
2023-01-13T00:16:39.971Z,29.55
2023-01-13T00:17:11.502Z,22.90
2023-01-13T00:17:42.965Z,29.48
2023-01-13T00:18:14.281Z,26.92
2023-01-13T00:18:46.080Z,31.10
2023-01-13T00:19:17.687Z,22.40
2023-01-13T00:19:49.202Z,32.17
2023-01-13T00:20:20.944Z,26.90
2023-01-13T00:20:59.312Z,29.52
2023-01-13T00:21:30.809Z,25.80
2023-01-13T00:22:02.155Z,22.83
2023-01-13T00:22:36.651Z,30.73
2023-01-13T00:23:07.983Z,27.48
2023-01-13T00:23:40.133Z,22.85
2023-01-13T00:24:11.684Z,32.40
2023-01-13T00:24:43.064Z,28.10
2023-01-13T00:25:14.590Z,24.75
2023-01-13T00:25:45.901Z,25.42
2023-01-13T00:26:25.986Z,26.73
2023-01-13T00:26:57.417Z,29.27
2023-01-13T00:27:29.208Z,28.35
2023-01-13T00:28:00.558Z,36.23
2023-01-13T00:28:32.800Z,24.08
2023-01-13T00:29:04.204Z,33.55
2023-01-13T00:29:35.549Z,28.55
2023-01-13T00:30:07.793Z,22.33
2023-01-13T00:30:39.110Z,29.17
2023-01-13T00:31:19.136Z,23.75
2023-01-13T00:31:50.891Z,25.20
2023-01-13T00:32:22.231Z,24.00
2023-01-13T00:32:53.924Z,26.92
2023-01-13T00:33:25.838Z,29.80
2023-01-13T00:33:58.621Z,25.25
2023-01-13T00:34:30.027Z,34.25
2023-01-13T00:35:01.606Z,27.20
2023-01-13T00:35:32.954Z,26.40
2023-01-13T00:36:06.307Z,28.00
2023-01-13T00:36:37.687Z,31.13
2023-01-13T00:37:12.879Z,32.92
2023-01-13T00:37:44.218Z,28.40
2023-01-13T00:38:15.586Z,28.75
2023-01-13T00:38:47.797Z,21.70
2023-01-13T00:39:19.132Z,28.75
2023-01-13T00:39:51.903Z,26.85
2023-01-13T00:40:23.300Z,24.05
2023-01-13T00:40:56.424Z,25.90
2023-01-13T00:41:29.224Z,28.45
2023-01-13T00:42:18.996Z,29.00
2023-01-13T00:43:08.937Z,24.70
2023-01-13T00:43:40.753Z,29.67
2023-01-13T00:44:12.062Z,34.50
2023-01-13T00:44:43.431Z,28.00
2023-01-13T00:45:15.749Z,25.38
2023-01-13T00:45:47.085Z,30.85
2023-01-13T00:46:21.167Z,31.15
2023-01-13T00:46:52.769Z,32.20
2023-01-13T00:47:24.315Z,30.33
2023-01-13T00:47:55.624Z,26.25
2023-01-13T00:48:28.369Z,30.75
2023-01-13T00:48:59.753Z,25.83
2023-01-13T00:49:31.057Z,32.78
2023-01-13T00:50:02.382Z,27.53
2023-01-13T00:50:33.922Z,31.42
2023-01-13T00:51:10.130Z,35.55
2023-01-13T00:51:41.439Z,35.08
2023-01-13T00:52:12.767Z,28.88
2023-01-13T00:52:44.091Z,21.70
2023-01-13T00:53:17.153Z,33.08
2023-01-13T00:53:50.353Z,27.10
2023-01-13T00:54:21.948Z,24.60
2023-01-13T00:54:53.272Z,29.27
2023-01-13T00:55:24.604Z,34.10
2023-01-13T00:56:04.529Z,32.63
2023-01-13T00:57:24.989Z,29.50
2023-01-13T00:58:03.081Z,26.83
2023-01-13T00:58:34.921Z,32.40
2023-01-13T00:59:06.761Z,27.48
2023-01-13T00:59:38.082Z,26.38
2023-01-13T01:00:10.136Z,30.98
2023-01-13T01:00:42.295Z,30.83
2023-01-13T01:01:17.552Z,32.73
2023-01-13T01:01:49.149Z,26.80
2023-01-13T01:02:20.597Z,26.80
2023-01-13T01:02:51.933Z,20.92
2023-01-13T01:03:23.311Z,21.50
2023-01-13T01:03:55.080Z,34.65
2023-01-13T01:04:26.408Z,20.33
2023-01-13T01:04:59.863Z,23.35
2023-01-13T01:05:33.680Z,30.20
2023-01-13T01:06:14.178Z,31.60
2023-01-13T01:06:45.509Z,27.30
2023-01-13T01:07:16.887Z,31.52
2023-01-13T01:07:48.315Z,26.13
2023-01-13T01:08:19.633Z,27.90
2023-01-13T01:08:52.208Z,23.83
2023-01-13T01:09:23.520Z,34.15
2023-01-13T01:09:54.845Z,29.70
2023-01-13T01:10:26.262Z,26.60
2023-01-13T01:11:18.946Z,27.23
2023-01-13T01:11:50.291Z,24.25
2023-01-13T01:12:21.700Z,28.97
2023-01-13T01:12:53.106Z,21.42
2023-01-13T01:13:24.555Z,25.75
2023-01-13T01:13:58.437Z,26.67
2023-01-13T01:14:29.865Z,31.05
2023-01-13T01:15:01.251Z,31.27
2023-01-13T01:15:32.676Z,27.08
2023-01-13T01:16:09.271Z,30.90
2023-01-13T01:16:41.347Z,27.15
2023-01-13T01:17:12.703Z,26.55
2023-01-13T01:17:44.044Z,25.50
2023-01-13T01:18:15.398Z,26.02
2023-01-13T01:18:48.468Z,31.75
2023-01-13T01:19:20.262Z,34.67
2023-01-13T01:19:51.583Z,24.50
2023-01-13T01:20:22.928Z,27.38
2023-01-13T01:20:54.501Z,27.38
2023-01-13T01:21:27.812Z,25.00
2023-01-13T01:21:59.138Z,25.58
2023-01-13T01:22:30.712Z,30.60
2023-01-13T01:23:02.096Z,24.97
2023-01-13T01:23:34.764Z,22.70
2023-01-13T01:24:06.691Z,33.47
2023-01-13T01:24:38.018Z,24.35
2023-01-13T01:25:09.637Z,31.63
2023-01-13T01:25:40.998Z,25.38
2023-01-13T01:26:21.095Z,31.08
2023-01-13T01:26:52.596Z,29.60
2023-01-13T01:27:23.950Z,23.48
2023-01-13T01:27:55.357Z,27.27
2023-01-13T01:28:26.902Z,28.07
2023-01-13T01:28:58.757Z,22.40
2023-01-13T01:29:30.326Z,32.53
2023-01-13T01:30:01.702Z,31.77
2023-01-13T01:30:33.324Z,22.45
2023-01-13T01:31:25.540Z,27.38
2023-01-13T01:31:58.751Z,25.48
2023-01-13T01:32:30.099Z,30.92
2023-01-13T01:33:03.106Z,29.48
2023-01-13T01:33:34.570Z,29.52
2023-01-13T01:34:06.012Z,30.60
2023-01-13T01:34:39.064Z,29.52
2023-01-13T01:35:10.459Z,19.83
2023-01-13T01:35:42.770Z,29.90
2023-01-13T01:36:16.497Z,20.38
2023-01-13T01:36:48.024Z,38.53
2023-01-13T01:37:19.401Z,24.10
2023-01-13T01:37:50.791Z,26.45
2023-01-13T01:38:23.521Z,36.75
2023-01-13T01:38:57.605Z,26.17
2023-01-13T01:39:28.984Z,27.53
2023-01-13T01:40:00.493Z,25.52
2023-01-13T01:40:31.959Z,31.77
2023-01-13T01:41:03.766Z,27.52
2023-01-13T01:41:36.052Z,29.40
2023-01-13T01:42:33.823Z,28.67
2023-01-13T01:43:38.191Z,30.95
2023-01-13T01:44:48.812Z,24.17
2023-01-13T01:45:24.469Z,21.15
2023-01-13T01:45:56.377Z,23.88
2023-01-13T01:46:44.280Z,38.87
2023-01-13T01:47:18.414Z,37.00
2023-01-13T01:47:56.425Z,21.63
2023-01-13T01:48:30.796Z,24.08
2023-01-13T01:49:20.216Z,25.45
2023-01-13T01:49:51.852Z,24.45
2023-01-13T01:50:23.917Z,23.10
2023-01-13T01:50:55.359Z,39.38
2023-01-13T01:51:30.430Z,28.88
2023-01-13T01:52:23.577Z,27.23
2023-01-13T01:52:59.717Z,30.73
2023-01-13T01:53:32.996Z,24.17
2023-01-13T01:54:08.141Z,25.17
2023-01-13T01:54:42.660Z,28.23
2023-01-13T01:55:17.911Z,24.48
2023-01-13T01:55:49.430Z,24.48
2023-01-13T01:56:21.199Z,23.42
2023-01-13T01:56:53.075Z,31.65
2023-01-13T01:57:32.810Z,24.70
2023-01-13T01:58:20.910Z,28.30
2023-01-13T01:58:53.585Z,30.87
2023-01-13T01:59:27.378Z,28.90
2023-01-13T02:00:00.895Z,26.73
2023-01-13T02:00:32.699Z,26.98
2023-01-13T02:01:04.466Z,26.65
2023-01-13T02:01:37.642Z,33.40
2023-01-13T02:02:09.712Z,32.63
2023-01-13T02:02:44.965Z,28.13
2023-01-13T02:03:18.366Z,26.48
2023-01-13T02:03:59.296Z,28.10
2023-01-13T02:04:34.584Z,25.97
2023-01-13T02:05:06.512Z,24.95
2023-01-13T02:05:38.934Z,32.47
2023-01-13T02:06:11.890Z,31.52
2023-01-13T02:06:45.761Z,27.85
2023-01-13T02:07:20.766Z,25.90
2023-01-13T02:07:54.951Z,31.88
2023-01-13T02:08:26.397Z,25.55
2023-01-13T02:08:59.989Z,21.33
2023-01-13T02:09:32.933Z,32.45
2023-01-13T02:10:08.175Z,28.50
2023-01-13T02:10:42.828Z,30.25
2023-01-13T02:11:53.216Z,29.17
2023-01-13T02:12:29.378Z,21.60
2023-01-13T02:13:05.078Z,24.17
2023-01-13T02:13:36.418Z,29.30
2023-01-13T02:14:07.865Z,26.98
2023-01-13T02:14:40.983Z,26.55
2023-01-13T02:15:19.710Z,36.50
2023-01-13T02:16:11.912Z,24.90
2023-01-13T02:16:50.609Z,25.27
2023-01-13T02:17:21.885Z,22.95
2023-01-13T02:18:16.231Z,32.10
2023-01-13T02:18:58.110Z,29.60
2023-01-13T02:19:44.591Z,26.20
2023-01-13T02:20:35.354Z,46.63
2023-01-13T02:21:17.084Z,27.48
2023-01-13T02:22:09.323Z,20.75
2023-01-13T02:23:38.285Z,32.28
2023-01-13T02:24:47.647Z,19.20
2023-01-13T02:25:50.141Z,22.23
2023-01-13T02:26:50.897Z,27.15
2023-01-13T02:27:44.004Z,18.83
2023-01-13T02:28:36.909Z,25.65
2023-01-13T02:29:47.064Z,22.35
2023-01-13T02:30:43.212Z,28.23
2023-01-13T02:31:33.937Z,24.40
2023-01-13T02:32:16.424Z,31.42
2023-01-13T02:33:34.194Z,26.95
2023-01-13T02:34:25.787Z,19.58
2023-01-13T02:35:17.539Z,33.10
2023-01-13T02:35:58.369Z,29.92
2023-01-13T02:36:52.253Z,22.73
2023-01-13T02:37:29.927Z,27.40
2023-01-13T02:38:02.395Z,29.85
2023-01-13T02:38:42.250Z,37.40
2023-01-13T02:39:28.892Z,33.22
2023-01-13T02:40:08.226Z,31.55
2023-01-13T02:40:56.540Z,25.50
2023-01-13T02:41:55.328Z,28.45
2023-01-13T02:42:52.289Z,25.37
2023-01-13T02:43:50.794Z,20.73
2023-01-13T02:44:28.526Z,29.88
2023-01-13T02:45:16.343Z,31.75
2023-01-13T02:46:01.657Z,37.10
2023-01-13T02:46:39.823Z,34.92
2023-01-13T02:47:25.125Z,32.30
2023-01-13T02:47:59.422Z,26.65
2023-01-13T02:48:31.708Z,30.52
2023-01-13T02:49:08.746Z,28.88
2023-01-13T02:49:48.921Z,32.23
2023-01-13T02:50:32.669Z,43.60
2023-01-13T02:51:12.138Z,25.80
2023-01-13T02:51:47.520Z,30.23
2023-01-13T02:52:34.608Z,24.13
2023-01-13T02:53:13.528Z,25.92
2023-01-13T02:53:57.343Z,35.85
2023-01-13T02:54:30.320Z,28.90
2023-01-13T02:55:08.762Z,34.00
2023-01-13T02:55:53.269Z,26.65
2023-01-13T02:56:26.644Z,25.83
2023-01-13T02:57:00.196Z,31.10
2023-01-13T02:57:34.082Z,30.40
2023-01-13T02:58:10.331Z,36.13
2023-01-13T02:58:45.247Z,27.00
2023-01-13T02:59:18.579Z,28.58
2023-01-13T02:59:54.367Z,26.55
2023-01-13T03:00:26.853Z,26.00
2023-01-13T03:00:58.460Z,36.28
2023-01-13T03:01:30.001Z,36.92
2023-01-13T03:02:03.486Z,32.43
2023-01-13T03:02:35.492Z,27.40
2023-01-13T03:03:07.214Z,25.45
2023-01-13T03:03:38.652Z,35.40
2023-01-13T03:04:13.664Z,27.25
2023-01-13T03:04:57.101Z,31.40
2023-01-13T03:05:31.771Z,29.67
2023-01-13T03:06:36.755Z,24.48
2023-01-13T03:08:01.003Z,25.00
2023-01-13T03:08:50.458Z,24.20
2023-01-13T03:09:38.616Z,29.93
2023-01-13T03:10:24.902Z,27.00
2023-01-13T03:11:16.327Z,26.13
2023-01-13T03:12:10.325Z,26.70
2023-01-13T03:13:03.861Z,22.05
2023-01-13T03:13:48.767Z,28.60
2023-01-13T03:14:33.426Z,29.98
2023-01-13T03:15:17.825Z,28.15
2023-01-13T03:16:00.934Z,30.25
2023-01-13T03:17:41.802Z,26.93
2023-01-13T03:18:32.325Z,27.92
2023-01-13T03:19:15.976Z,23.73
2023-01-13T03:20:00.710Z,24.95
2023-01-13T03:20:42.246Z,29.80
2023-01-13T03:21:30.885Z,26.50
2023-01-13T03:22:14.468Z,33.17
2023-01-13T03:23:01.051Z,29.95
2023-01-13T03:23:51.048Z,29.98
2023-01-13T03:24:40.096Z,29.65
2023-01-13T03:25:24.349Z,21.97
2023-01-13T03:26:06.577Z,22.58
2023-01-13T03:26:47.629Z,19.08
2023-01-13T03:27:23.291Z,29.33
2023-01-13T03:28:03.050Z,22.80
2023-01-13T03:28:42.685Z,25.08
2023-01-13T03:29:19.970Z,27.13
2023-01-13T03:30:01.019Z,28.55
2023-01-13T03:30:54.546Z,27.20
2023-01-13T03:31:32.221Z,29.60
2023-01-13T03:32:29.109Z,30.70
2023-01-13T03:33:07.075Z,21.05
2023-01-13T03:33:45.325Z,21.83
2023-01-13T03:34:22.448Z,22.83
2023-01-13T03:34:58.813Z,24.23
2023-01-13T03:35:40.837Z,27.80
2023-01-13T03:36:16.624Z,35.20
2023-01-13T03:36:53.256Z,28.73
2023-01-13T03:37:30.814Z,28.73
2023-01-13T03:38:34.259Z,23.48
2023-01-13T03:39:11.686Z,26.87
2023-01-13T03:39:51.322Z,33.08
2023-01-13T03:40:28.721Z,34.33
2023-01-13T03:41:06.636Z,23.38
2023-01-13T03:41:40.840Z,29.45
2023-01-13T03:42:18.462Z,26.77
2023-01-13T03:43:13.908Z,30.65
2023-01-13T03:44:15.516Z,27.60
2023-01-13T03:44:54.970Z,23.55
2023-01-13T03:45:27.533Z,31.30
2023-01-13T03:46:11.971Z,24.67
2023-01-13T03:46:54.287Z,26.58
2023-01-13T03:47:34.669Z,21.55
2023-01-13T03:48:10.995Z,22.00
2023-01-13T03:48:45.607Z,30.02
2023-01-13T03:49:21.679Z,20.40
2023-01-13T03:50:34.910Z,27.73
2023-01-13T03:51:11.705Z,23.98
2023-01-13T03:51:47.928Z,26.73
2023-01-13T03:52:26.235Z,23.83
2023-01-13T03:53:06.676Z,19.47
2023-01-13T03:54:36.053Z,28.58
2023-01-13T03:55:13.079Z,22.48
2023-01-13T03:55:51.044Z,19.80
2023-01-13T03:56:31.145Z,16.20
2023-01-13T03:57:09.116Z,19.85
2023-01-13T03:57:49.470Z,26.50
2023-01-13T03:58:29.760Z,21.40
2023-01-13T03:59:04.918Z,23.30
2023-01-13T03:59:43.064Z,21.03
2023-01-13T04:00:15.608Z,24.48
2023-01-13T04:00:53.594Z,20.25
2023-01-13T04:01:32.302Z,25.73
2023-01-13T04:02:09.470Z,19.98
2023-01-13T04:02:50.406Z,27.33
2023-01-13T04:03:33.574Z,22.70
2023-01-13T04:04:14.597Z,20.58
2023-01-13T04:04:55.441Z,21.48
2023-01-13T04:05:27.521Z,22.60
2023-01-13T04:06:11.814Z,25.50
2023-01-13T04:06:53.896Z,20.92
2023-01-13T04:07:37.568Z,22.13
2023-01-13T04:08:28.616Z,20.27
2023-01-13T04:09:29.472Z,16.90
2023-01-13T04:10:05.287Z,18.02
2023-01-13T04:10:52.489Z,19.33
2023-01-13T04:11:35.699Z,19.55
2023-01-13T04:12:09.932Z,14.50
2023-01-13T04:13:01.268Z,19.45
2023-01-13T04:13:38.039Z,15.87
2023-01-13T04:14:12.559Z,15.07
2023-01-13T04:14:45.291Z,19.20
2023-01-13T04:15:20.456Z,20.38
2023-01-13T04:15:52.081Z,16.58
2023-01-13T04:16:23.879Z,20.73
2023-01-13T04:16:56.467Z,15.77
2023-01-13T04:17:28.051Z,21.25
2023-01-13T04:18:21.723Z,18.15
2023-01-13T04:18:53.119Z,21.42
2023-01-13T04:19:24.576Z,19.47
2023-01-13T04:19:56.057Z,18.10
2023-01-13T04:20:27.466Z,19.33
2023-01-13T04:21:01.875Z,22.90
2023-01-13T04:21:34.973Z,24.33
2023-01-13T04:22:06.540Z,16.42
2023-01-13T04:22:37.949Z,23.73
2023-01-13T04:23:10.511Z,15.43
2023-01-13T04:23:41.875Z,20.40
2023-01-13T04:24:13.454Z,22.42
2023-01-13T04:24:44.909Z,22.60
2023-01-13T04:25:16.405Z,20.02
2023-01-13T04:25:48.273Z,20.45
2023-01-13T04:26:19.898Z,17.70
2023-01-13T04:26:51.809Z,15.45
2023-01-13T04:27:23.183Z,19.88
2023-01-13T04:27:54.616Z,13.82
2023-01-13T04:28:26.275Z,18.40
2023-01-13T04:28:57.646Z,18.17
2023-01-13T04:29:29.125Z,18.85
2023-01-13T04:30:00.697Z,18.83
2023-01-13T04:30:32.440Z,17.77
2023-01-13T04:31:03.934Z,18.50
2023-01-13T04:31:35.364Z,20.15
2023-01-13T04:32:06.707Z,15.02
2023-01-13T04:32:38.097Z,19.15
2023-01-13T04:33:09.573Z,15.88
2023-01-13T04:33:41.207Z,16.75
2023-01-13T04:34:12.861Z,11.18
2023-01-13T04:34:44.330Z,13.48
2023-01-13T04:35:16.104Z,15.40
2023-01-13T04:35:48.226Z,19.48
2023-01-13T04:36:19.637Z,17.95
2023-01-13T04:36:51.011Z,13.90
2023-01-13T04:37:22.400Z,12.95
2023-01-13T04:37:53.773Z,17.08
2023-01-13T04:38:25.182Z,10.85
2023-01-13T04:38:56.560Z,12.80
2023-01-13T04:39:27.952Z,11.48
2023-01-13T04:39:59.342Z,15.30
2023-01-13T04:40:30.712Z,13.27
2023-01-13T04:41:02.117Z,17.90
2023-01-13T04:41:53.485Z,16.23
2023-01-13T04:42:24.839Z,12.05
2023-01-13T04:42:56.261Z,12.18
2023-01-13T04:43:27.592Z,10.60
2023-01-13T04:43:58.913Z,15.50
2023-01-13T04:45:24.080Z,11.27
2023-01-13T04:45:55.490Z,16.48
2023-01-13T04:46:26.939Z,11.23
2023-01-13T04:46:58.769Z,15.02
2023-01-13T04:47:30.185Z,13.00
2023-01-13T04:48:01.804Z,13.07
2023-01-13T04:48:33.242Z,10.85
2023-01-13T04:49:04.809Z,17.85
2023-01-13T04:49:36.157Z,11.50
2023-01-13T04:50:08.501Z,11.48
2023-01-13T04:50:40.060Z,9.75
2023-01-13T04:51:11.472Z,12.43
2023-01-13T04:52:03.761Z,19.10
2023-01-13T04:52:35.150Z,10.27
2023-01-13T04:53:07.061Z,9.35
2023-01-13T04:53:38.445Z,12.57
2023-01-13T04:54:11.550Z,9.10
2023-01-13T04:54:42.889Z,9.98
2023-01-13T04:55:14.777Z,11.32
2023-01-13T04:55:47.874Z,11.23
2023-01-13T04:56:19.236Z,14.60
2023-01-13T04:56:50.644Z,15.00
2023-01-13T04:57:22.113Z,9.57
2023-01-13T04:57:53.728Z,8.23
2023-01-13T04:58:25.332Z,9.40
2023-01-13T04:58:57.199Z,11.00
2023-01-13T04:59:28.684Z,9.85
2023-01-13T05:00:00.308Z,10.95
2023-01-13T05:00:32.045Z,10.27
2023-01-13T05:01:03.524Z,13.07
2023-01-13T05:01:35.278Z,14.07
2023-01-13T05:02:09.119Z,12.32
2023-01-13T05:02:40.811Z,11.30
2023-01-13T05:03:12.212Z,15.00
2023-01-13T05:03:43.561Z,11.95
2023-01-13T05:04:15.634Z,10.90
2023-01-13T05:04:47.855Z,15.18
2023-01-13T05:05:19.267Z,6.30
2023-01-13T05:05:52.087Z,14.18
2023-01-13T05:06:23.422Z,11.73
2023-01-13T05:06:54.866Z,5.60
2023-01-13T05:07:26.544Z,12.63
2023-01-13T05:07:58.271Z,12.50
2023-01-13T05:08:29.645Z,10.70
2023-01-13T05:09:01.097Z,12.13
2023-01-13T05:09:32.600Z,11.00
2023-01-13T05:10:04.527Z,8.52
2023-01-13T05:10:36.787Z,12.55
2023-01-13T05:11:28.570Z,8.07
2023-01-13T05:12:18.637Z,9.20
2023-01-13T05:13:08.561Z,13.45
2023-01-13T05:13:58.435Z,8.30
2023-01-13T05:14:48.452Z,8.77
2023-01-13T05:15:38.648Z,13.82
2023-01-13T05:16:30.784Z,10.38
2023-01-13T05:17:03.240Z,6.95
2023-01-13T05:17:35.889Z,14.38
2023-01-13T05:18:07.371Z,11.27
2023-01-13T05:18:38.905Z,7.90
2023-01-13T05:19:10.672Z,14.07
2023-01-13T05:19:42.201Z,7.57
2023-01-13T05:20:14.107Z,11.57
2023-01-13T05:20:46.034Z,11.20
2023-01-13T05:21:43.256Z,10.20
2023-01-13T05:22:33.297Z,12.50
2023-01-13T05:23:23.135Z,12.07
2023-01-13T05:24:12.997Z,6.93
2023-01-13T05:25:03.483Z,11.63
2023-01-13T05:25:39.055Z,12.80
2023-01-13T05:26:10.461Z,9.45
2023-01-13T05:26:41.799Z,13.27
2023-01-13T05:27:13.199Z,16.63
2023-01-13T05:27:44.674Z,10.87
2023-01-13T05:28:16.359Z,15.55
2023-01-13T05:28:47.799Z,13.50
2023-01-13T05:29:19.362Z,9.20
2023-01-13T05:29:50.726Z,13.05
2023-01-13T05:30:24.104Z,12.48
2023-01-13T05:30:56.960Z,8.82
2023-01-13T05:31:28.410Z,10.68
2023-01-13T05:32:02.504Z,10.25
2023-01-13T05:32:33.941Z,26.05
2023-01-13T05:33:05.344Z,7.67
2023-01-13T05:33:36.924Z,14.00
2023-01-13T05:34:08.350Z,9.52
2023-01-13T05:34:39.936Z,12.82
2023-01-13T05:35:11.429Z,12.55
2023-01-13T05:35:44.827Z,12.48
2023-01-13T05:36:16.208Z,9.13
2023-01-13T05:36:47.634Z,17.15
2023-01-13T05:37:19.055Z,15.40
2023-01-13T05:37:51.335Z,10.55
2023-01-13T05:38:22.921Z,17.20
2023-01-13T05:38:54.307Z,13.30
2023-01-13T05:39:27.306Z,11.30
2023-01-13T05:40:17.430Z,11.38
2023-01-13T05:41:07.366Z,12.38
2023-01-13T05:41:57.073Z,8.48
2023-01-13T05:42:46.848Z,13.82
2023-01-13T05:43:21.331Z,11.20
2023-01-13T05:43:52.770Z,13.13
2023-01-13T05:44:24.554Z,11.75
2023-01-13T05:44:55.913Z,10.30
2023-01-13T05:45:27.670Z,14.27
2023-01-13T05:46:02.081Z,12.70
2023-01-13T05:46:33.639Z,9.57
2023-01-13T05:47:05.277Z,8.73
2023-01-13T05:47:36.968Z,11.30
2023-01-13T05:48:08.347Z,14.57
2023-01-13T05:48:42.344Z,12.45
2023-01-13T05:49:13.675Z,16.98
2023-01-13T05:49:45.048Z,18.48
2023-01-13T05:50:16.785Z,13.90
2023-01-13T05:50:49.471Z,15.43
2023-01-13T05:51:26.167Z,19.75
2023-01-13T05:51:57.774Z,13.30
2023-01-13T05:52:29.285Z,16.08
2023-01-13T05:53:00.652Z,17.67
2023-01-13T05:53:32.557Z,17.27
2023-01-13T05:54:04.049Z,12.02
2023-01-13T05:54:35.403Z,16.77
2023-01-13T05:55:07.428Z,15.95
2023-01-13T05:55:40.535Z,15.23
2023-01-13T05:56:12.154Z,11.63
2023-01-13T05:56:43.643Z,11.48
2023-01-13T05:57:15.001Z,12.07
2023-01-13T05:57:46.348Z,12.85
2023-01-13T05:58:19.671Z,14.10
2023-01-13T05:58:51.029Z,20.65
2023-01-13T05:59:22.416Z,12.90
2023-01-13T05:59:53.898Z,11.63
2023-01-13T06:00:25.514Z,16.75
2023-01-13T06:01:02.191Z,15.30
2023-01-13T06:01:34.035Z,13.77
2023-01-13T06:02:05.546Z,14.30
2023-01-13T06:02:37.141Z,12.52
2023-01-13T06:03:09.605Z,18.45
2023-01-13T06:03:41.041Z,14.90
2023-01-13T06:04:12.501Z,17.15
2023-01-13T06:04:43.980Z,16.25
2023-01-13T06:05:15.893Z,12.23
2023-01-13T06:05:48.643Z,15.48
2023-01-13T06:06:19.973Z,18.30
2023-01-13T06:06:51.370Z,13.32
2023-01-13T06:07:22.849Z,17.08
2023-01-13T06:07:58.168Z,18.50
2023-01-13T06:08:31.278Z,14.07
2023-01-13T06:09:02.725Z,13.43
2023-01-13T06:09:34.164Z,15.35
2023-01-13T06:10:06.020Z,14.60
2023-01-13T06:10:37.440Z,11.98
2023-01-13T06:11:08.821Z,15.65
2023-01-13T06:11:40.179Z,15.80
2023-01-13T06:12:12.984Z,17.08
2023-01-13T06:12:44.474Z,14.15
2023-01-13T06:13:16.171Z,15.70
2023-01-13T06:13:47.562Z,20.05
2023-01-13T06:14:19.043Z,16.00
2023-01-13T06:14:50.413Z,20.60
2023-01-13T06:15:22.027Z,14.02
2023-01-13T06:15:59.866Z,16.90
2023-01-13T06:16:31.381Z,19.98
2023-01-13T06:17:02.818Z,12.97
2023-01-13T06:17:34.271Z,14.68
2023-01-13T06:18:05.878Z,20.23
2023-01-13T06:18:37.239Z,13.63
2023-01-13T06:19:11.732Z,20.60
2023-01-13T06:19:43.065Z,15.05
2023-01-13T06:20:15.847Z,15.30
2023-01-13T06:20:47.345Z,17.45
2023-01-13T06:21:18.721Z,7.53
2023-01-13T06:21:50.461Z,14.27
2023-01-13T06:22:26.693Z,16.13
2023-01-13T06:22:59.474Z,19.63
2023-01-13T06:23:34.948Z,15.85
2023-01-13T06:24:07.540Z,12.55
2023-01-13T06:24:39.646Z,18.40
2023-01-13T06:25:46.156Z,14.88
2023-01-13T06:26:20.841Z,20.30
2023-01-13T06:26:52.337Z,12.43
2023-01-13T06:27:24.569Z,13.90
2023-01-13T06:27:59.372Z,19.08
2023-01-13T06:28:30.755Z,21.77
2023-01-13T06:29:02.187Z,13.50
2023-01-13T06:29:34.009Z,18.85
2023-01-13T06:30:05.885Z,15.57
2023-01-13T06:30:45.317Z,14.70
2023-01-13T06:31:16.998Z,17.20
2023-01-13T06:31:48.625Z,12.10
2023-01-13T06:32:28.013Z,16.42
2023-01-13T06:33:01.893Z,15.32
2023-01-13T06:33:37.343Z,16.27
2023-01-13T06:34:13.788Z,10.43
2023-01-13T06:34:51.321Z,12.30
2023-01-13T06:35:28.325Z,14.25
2023-01-13T06:36:05.723Z,12.30
2023-01-13T06:36:43.956Z,16.17
2023-01-13T06:37:19.950Z,15.43
2023-01-13T06:37:54.107Z,16.25
2023-01-13T06:38:28.448Z,12.93
2023-01-13T06:39:02.202Z,17.95
2023-01-13T06:39:35.812Z,16.67
2023-01-13T06:40:07.997Z,16.30
2023-01-13T06:40:42.397Z,19.70
2023-01-13T06:41:14.210Z,23.50
2023-01-13T06:42:08.242Z,16.42
2023-01-13T06:42:58.360Z,19.95
2023-01-13T06:43:29.864Z,10.23
2023-01-13T06:44:01.237Z,13.82
2023-01-13T06:44:33.075Z,11.80
2023-01-13T06:45:04.713Z,14.10
2023-01-13T06:45:36.366Z,15.18
2023-01-13T06:46:08.013Z,13.77
2023-01-13T06:46:39.561Z,13.60
2023-01-13T06:47:11.087Z,22.80
2023-01-13T06:47:43.443Z,16.45
2023-01-13T06:48:15.296Z,12.40
2023-01-13T06:48:46.659Z,12.05
2023-01-13T06:49:20.619Z,17.25
2023-01-13T06:49:53.533Z,14.38
2023-01-13T06:50:25.482Z,18.67
2023-01-13T06:50:56.806Z,12.15
2023-01-13T06:51:28.137Z,15.17
2023-01-13T06:51:59.551Z,15.18
2023-01-13T06:52:30.895Z,18.83
2023-01-13T06:53:02.453Z,14.57
2023-01-13T06:53:33.878Z,18.85
2023-01-13T06:54:05.423Z,16.98
2023-01-13T06:54:36.899Z,14.77
2023-01-13T06:55:08.606Z,20.05
2023-01-13T06:55:40.276Z,18.98
2023-01-13T06:56:11.652Z,15.50
2023-01-13T06:56:42.999Z,16.43
2023-01-13T06:57:14.381Z,19.75
2023-01-13T06:57:48.746Z,19.10
2023-01-13T06:58:20.140Z,17.92
2023-01-13T06:58:51.537Z,16.85
2023-01-13T06:59:22.986Z,18.80
2023-01-13T06:59:54.313Z,17.65
2023-01-13T07:00:26.982Z,18.23
2023-01-13T07:01:01.261Z,27.80
2023-01-13T07:01:32.936Z,15.02
2023-01-13T07:02:04.529Z,16.87
2023-01-13T07:02:36.080Z,17.90
2023-01-13T07:03:13.227Z,20.23
2023-01-13T07:03:44.642Z,18.63
2023-01-13T07:04:16.403Z,15.93
2023-01-13T07:04:47.924Z,14.90
2023-01-13T07:05:20.362Z,17.60
2023-01-13T07:05:54.167Z,15.13
2023-01-13T07:06:25.522Z,16.63
2023-01-13T07:06:57.047Z,14.05
2023-01-13T07:07:28.454Z,18.43
2023-01-13T07:07:59.966Z,16.92
2023-01-13T07:08:31.300Z,15.18
2023-01-13T07:09:03.063Z,19.27
2023-01-13T07:09:34.541Z,21.70
2023-01-13T07:10:58.189Z,17.30
2023-01-13T07:11:29.659Z,17.95
2023-01-13T07:12:01.026Z,19.60
2023-01-13T07:12:52.343Z,20.40
2023-01-13T07:13:42.405Z,15.73
2023-01-13T07:14:32.523Z,18.75
2023-01-13T07:15:19.248Z,15.75
2023-01-13T07:15:59.229Z,17.73
2023-01-13T07:16:30.808Z,12.63
2023-01-13T07:17:02.239Z,16.33
2023-01-13T07:17:33.722Z,17.00
2023-01-13T07:18:05.295Z,16.48
2023-01-13T07:18:37.001Z,20.90
2023-01-13T07:19:08.543Z,14.02
2023-01-13T07:19:39.909Z,17.57
2023-01-13T07:20:11.584Z,20.95
2023-01-13T07:20:42.956Z,20.35
2023-01-13T07:21:18.742Z,16.48
2023-01-13T07:22:08.682Z,17.95
2023-01-13T07:22:40.231Z,14.80
2023-01-13T07:23:11.633Z,14.70
2023-01-13T07:23:43.032Z,24.88
2023-01-13T07:24:14.392Z,16.60
2023-01-13T07:24:45.831Z,17.33
2023-01-13T07:25:17.248Z,14.87
2023-01-13T07:25:49.705Z,22.02
2023-01-13T07:26:21.131Z,13.77
2023-01-13T07:26:52.783Z,14.65
2023-01-13T07:27:24.123Z,19.55
2023-01-13T07:27:57.347Z,15.23
2023-01-13T07:28:30.083Z,17.02
2023-01-13T07:29:01.539Z,20.25
2023-01-13T07:29:33.146Z,16.67
2023-01-13T07:30:06.135Z,13.90
2023-01-13T07:30:38.738Z,19.53
2023-01-13T07:31:18.705Z,21.67
2023-01-13T07:31:50.578Z,19.20
2023-01-13T07:32:22.031Z,19.83
2023-01-13T07:32:53.378Z,14.70
2023-01-13T07:33:25.283Z,18.67
2023-01-13T07:33:56.743Z,33.28
2023-01-13T07:34:28.121Z,17.05
2023-01-13T07:35:04.717Z,16.67
2023-01-13T07:35:36.125Z,20.70
2023-01-13T07:36:07.903Z,19.53
2023-01-13T07:36:39.354Z,20.38
2023-01-13T07:37:10.780Z,16.42
2023-01-13T07:37:42.192Z,15.30
2023-01-13T07:38:14.140Z,17.92
2023-01-13T07:38:45.507Z,16.38
2023-01-13T07:39:17.018Z,19.55
2023-01-13T07:39:50.138Z,14.32
2023-01-13T07:40:21.531Z,17.70
2023-01-13T07:40:53.212Z,23.27
2023-01-13T07:41:42.997Z,21.97
2023-01-13T07:42:33.231Z,18.83
2023-01-13T07:43:23.178Z,18.90
2023-01-13T07:43:54.615Z,19.65
2023-01-13T07:44:27.642Z,16.45
2023-01-13T07:44:59.286Z,15.95
2023-01-13T07:45:30.820Z,12.10